Time;durP1;ratioP1;P1;durP2;ratioP2;P2;SDS_P1;SDS_P2;PMS_P1;PMS_P2;Temp;Humidity;BMP_temperature;BMP_pressure;BME280_temperature;BME280_humidity;BME280_pressure;Samples;Min_cycle;Max_cycle;Signal;HPM_P1;HPM_P2
2022/03/01 00:00:10;;;;;;;;;;;6.90;96.40;220.40;238766.00;;;;350881;28;4589;-88
2022/03/01 00:00:22;;;;;;;;;;;6.90;96.40;220.40;238766.00;;;;354149;27;5339;-88
2022/03/01 00:00:34;;;;;;;;;;;6.90;96.50;220.40;238766.00;;;;354123;27;3995;-88
2022/03/01 00:00:45;;;;;;;;;;;6.90;96.40;220.40;238766.00;;;;352586;28;5275;-88
2022/03/01 00:00:57;;;;;;;;;;;6.90;96.30;220.40;238766.00;;;;354139;27;4429;-88
2022/03/01 00:01:10;;;;;;;;;;;6.90;96.30;220.40;238766.00;;;;350685;28;5137;-88
2022/03/01 00:01:22;;;;;;;;;;;6.90;96.30;220.40;238766.00;;;;349975;28;4063;-88
2022/03/01 00:01:34;;;;;;;;;;;6.90;96.20;220.40;238766.00;;;;354771;27;5251;-88
2022/03/01 00:01:46;;;;;;;;;;;6.90;96.20;220.40;238766.00;;;;355551;27;4070;-88
2022/03/01 00:01:58;;;;;;;;;;;6.90;96.10;220.40;238766.00;;;;352409;28;7167;-87
2022/03/01 00:02:10;;;;;;;;;;;6.90;96.20;220.40;238766.00;;;;351191;28;4228;-88
2022/03/01 00:02:22;;;;;;;;;;;6.90;96.30;220.40;238766.00;;;;350864;28;5016;-88
2022/03/01 00:02:34;;;;;;;;;;;6.90;96.40;220.40;238766.00;;;;351337;28;4013;-88
2022/03/01 00:02:47;;;;;;;;;;;6.90;96.40;220.40;238766.00;;;;349775;28;5730;-88
2022/03/01 00:02:58;;;;;;;;;;;6.90;96.40;220.40;238766.00;;;;351307;28;3975;-88
2022/03/01 00:03:11;;;;;;;;;;;6.90;96.30;220.40;238766.00;;;;352673;28;7997;-87
2022/03/01 00:03:24;;;;;;;;;;;6.90;96.30;220.40;238766.00;;;;352702;28;6026;-88
2022/03/01 00:03:36;;;;;;;;;;;6.90;96.20;220.40;238766.00;;;;351206;28;5026;-88
2022/03/01 00:03:48;;;;;;;;;;;6.90;96.20;220.40;238766.00;;;;352643;28;4268;-88
2022/03/01 00:04:00;;;;;;;;;;;6.90;96.20;220.40;238766.00;;;;352849;27;7477;-88
2022/03/01 00:04:11;;;;;;;;;;;6.90;96.10;220.40;238766.00;;;;352322;28;6381;-87
2022/03/01 00:04:24;;;;;;;;;;;6.90;96.10;220.40;238766.00;;;;355487;27;7170;-88
2022/03/01 00:04:36;;;;;;;;;;;6.90;96.20;220.40;238766.00;;;;352650;27;4000;-88
2022/03/01 00:04:47;;;;;;;;;;;6.90;96.40;220.40;238766.00;;;;352599;28;5050;-88
2022/03/01 00:04:59;;;;;;;;;;;6.90;96.30;220.40;238766.00;;;;350041;28;4005;-88
2022/03/01 00:05:11;;;;;;;;;;;6.90;96.20;220.40;238766.00;;;;354146;27;5421;-88
2022/03/01 00:05:23;;;;;;;;;;;6.90;96.20;220.40;238766.00;;;;352845;28;4022;-88
2022/03/01 00:05:35;;;;;;;;;;;6.90;96.30;220.40;238766.00;;;;351063;28;5535;-88
2022/03/01 00:05:47;;;;;;;;;;;6.90;96.30;220.40;238766.00;;;;350965;28;4215;-88
2022/03/01 00:05:59;;;;;;;;;;;6.90;96.30;220.40;238766.00;;;;351257;28;7118;-88
2022/03/01 00:06:11;;;;;;;;;;;6.90;96.20;220.40;238766.00;;;;349818;28;4521;-88
2022/03/01 00:06:23;;;;;;;;;;;6.90;96.30;220.40;238766.00;;;;352639;27;5240;-88
2022/03/01 00:06:35;;;;;;;;;;;6.90;96.30;220.40;238766.00;;;;351357;28;4066;-88
2022/03/01 00:06:47;;;;;;;;;;;6.90;96.20;220.40;238766.00;;;;351137;28;5798;-88
2022/03/01 00:06:59;;;;;;;;;;;6.90;96.40;220.40;238766.00;;;;352820;27;4595;-88
2022/03/01 00:07:12;;;;;;;;;;;6.90;96.40;220.40;238766.00;;;;352360;28;5037;-88
2022/03/01 00:07:24;;;;;;;;;;;6.90;96.50;220.40;238766.00;;;;351334;28;4066;-88
2022/03/01 00:07:35;;;;;;;;;;;6.90;96.40;220.40;238766.00;;;;351198;27;5134;-88
2022/03/01 00:07:47;;;;;;;;;;;6.90;96.40;220.40;238766.00;;;;352789;27;5904;-87
2022/03/01 00:07:59;;;;;;;;;;;6.90;96.60;220.40;238766.00;;;;352497;28;5014;-88
2022/03/01 00:08:12;;;;;;;;;;;6.90;96.50;220.40;238766.00;;;;353781;27;4028;-88
2022/03/01 00:08:24;;;;;;;;;;;6.90;96.40;220.40;238766.00;;;;354082;27;7294;-88
2022/03/01 00:08:36;;;;;;;;;;;6.90;96.40;220.40;238766.00;;;;354179;27;4173;-88
2022/03/01 00:08:47;;;;;;;;;;;6.90;96.30;220.40;238766.00;;;;349790;28;5625;-88
2022/03/01 00:08:59;;;;;;;;;;;6.90;96.30;220.40;238766.00;;;;352793;28;4274;-88
2022/03/01 00:09:13;;;;;;;;;;;6.90;96.30;220.40;238766.00;;;;352604;28;7232;-88
2022/03/01 00:09:25;;;;;;;;;;;6.90;96.40;220.40;238766.00;;;;352668;28;4024;-88
2022/03/01 00:09:36;;;;;;;;;;;6.90;96.30;220.40;238766.00;;;;354139;27;5069;-88
2022/03/01 00:09:48;;;;;;;;;;;6.90;96.40;220.40;238766.00;;;;354180;27;4469;-88
2022/03/01 00:10:00;;;;;;;;;;;6.90;96.40;220.40;238766.00;;;;349525;28;5586;-88
2022/03/01 00:10:13;;;;;;;;;;;6.90;96.40;220.40;238766.00;;;;351513;28;4196;-88
2022/03/01 00:10:25;;;;;;;;;;;6.90;96.50;220.40;238766.00;;;;351323;28;7673;-88
2022/03/01 00:10:37;;;;;;;;;;;6.90;96.50;220.40;238766.00;;;;351429;28;4034;-88
2022/03/01 00:10:49;;;;;;;;;;;6.90;96.60;220.40;238766.00;;;;351204;28;7232;-88
2022/03/01 00:11:00;;;;;;;;;;;6.90;96.50;220.40;238766.00;;;;351242;28;3998;-88
2022/03/01 00:11:13;;;;;;;;;;;6.90;96.50;220.40;238766.00;;;;350963;28;5024;-88
2022/03/01 00:11:25;;;;;;;;;;;6.90;96.40;220.40;238766.00;;;;349868;28;4057;-88
2022/03/01 00:11:38;;;;;;;;;;;6.90;96.40;220.40;238766.00;;;;354073;27;5608;-88
2022/03/01 00:11:50;;;;;;;;;;;6.90;96.50;220.40;238766.00;;;;352572;28;3986;-88
2022/03/01 00:12:02;;;;;;;;;;;6.80;96.50;220.40;238766.00;;;;351166;28;7446;-88
2022/03/01 00:12:15;;;;;;;;;;;6.80;96.40;220.40;238766.00;;;;349818;28;4784;-88
2022/03/01 00:12:26;;;;;;;;;;;6.90;96.40;220.40;238766.00;;;;349749;28;7173;-88
2022/03/01 00:12:38;;;;;;;;;;;6.90;96.40;220.40;238766.00;;;;351398;28;4035;-88
2022/03/01 00:12:50;;;;;;;;;;;6.90;96.40;220.40;238766.00;;;;348350;28;7270;-88
2022/03/01 00:13:02;;;;;;;;;;;6.90;96.30;220.40;238766.00;;;;348948;28;4460;-88
2022/03/01 00:13:14;;;;;;;;;;;6.90;96.20;220.40;238766.00;;;;348853;28;7413;-88
2022/03/01 00:13:26;;;;;;;;;;;6.90;96.30;220.40;238766.00;;;;351219;28;4231;-88
2022/03/01 00:13:38;;;;;;;;;;;6.80;96.40;220.40;238766.00;;;;354074;27;5017;-88
2022/03/01 00:13:50;;;;;;;;;;;6.90;96.40;220.40;238766.00;;;;354126;27;3982;-88
2022/03/01 00:14:02;;;;;;;;;;;6.80;96.30;220.40;238766.00;;;;351166;28;5268;-88
2022/03/01 00:14:21;;;;;;;;;;;6.80;96.40;220.40;238766.00;;;;352785;28;6217;-88
2022/03/01 00:14:32;;;;;;;;;;;6.80;96.60;220.40;238766.00;;;;351259;28;5263;-88
2022/03/01 00:14:44;;;;;;;;;;;6.80;96.80;220.40;238766.00;;;;351308;28;4000;-88
2022/03/01 00:14:56;;;;;;;;;;;6.80;96.80;220.40;238766.00;;;;351214;28;5251;-88
2022/03/01 00:15:08;;;;;;;;;;;6.80;96.80;220.40;238766.00;;;;351217;28;6020;-88
2022/03/01 00:15:20;;;;;;;;;;;6.80;96.60;220.40;238766.00;;;;352184;28;5553;-88
2022/03/01 00:15:32;;;;;;;;;;;6.80;96.50;220.40;238766.00;;;;352564;28;4159;-88
2022/03/01 00:15:44;;;;;;;;;;;6.80;96.50;220.40;238766.00;;;;351403;28;5060;-88
2022/03/01 00:15:55;;;;;;;;;;;6.80;96.50;220.40;238766.00;;;;351139;28;4591;-88
2022/03/01 00:16:07;;;;;;;;;;;6.80;96.50;220.40;238766.00;;;;350696;28;7255;-88
2022/03/01 00:16:20;;;;;;;;;;;6.80;96.50;220.40;238766.00;;;;349701;28;4207;-88
2022/03/01 00:16:32;;;;;;;;;;;6.90;96.50;220.40;238766.00;;;;351104;28;5006;-88
2022/03/01 00:16:44;;;;;;;;;;;6.80;96.30;220.40;238766.00;;;;351206;28;4197;-88
2022/03/01 00:16:55;;;;;;;;;;;6.80;96.40;220.40;238766.00;;;;349936;28;5034;-88
2022/03/01 00:17:07;;;;;;;;;;;6.90;96.40;220.40;238766.00;;;;352421;28;4562;-88
2022/03/01 00:17:19;;;;;;;;;;;6.80;96.30;220.40;238766.00;;;;351322;28;5057;-88
2022/03/01 00:17:31;;;;;;;;;;;6.90;96.30;220.40;238766.00;;;;352537;28;4479;-88
2022/03/01 00:17:42;;;;;;;;;;;6.80;96.30;220.40;238766.00;;;;351272;28;5042;-88
2022/03/01 00:17:54;;;;;;;;;;;6.80;96.40;220.40;238766.00;;;;352758;28;4691;-88
2022/03/01 00:18:06;;;;;;;;;;;6.80;96.50;220.40;238766.00;;;;352269;28;5145;-88
2022/03/01 00:18:18;;;;;;;;;;;6.80;96.50;220.40;238766.00;;;;352661;28;3966;-88
2022/03/01 00:18:30;;;;;;;;;;;6.80;96.40;220.40;238766.00;;;;352519;28;7376;-88
2022/03/01 00:18:44;;;;;;;;;;;6.80;96.30;220.40;238766.00;;;;351368;28;4202;-88
2022/03/01 00:18:57;;;;;;;;;;;6.80;96.50;220.40;238766.00;;;;351102;28;5059;-88
2022/03/01 00:19:09;;;;;;;;;;;6.80;96.60;220.40;238766.00;;;;349365;28;5800;-88
2022/03/01 00:19:21;;;;;;;;;;;6.80;96.60;220.40;238766.00;;;;351097;28;7038;-88
2022/03/01 00:19:33;;;;;;;;;;;6.80;96.50;220.40;238766.00;;;;351047;28;4219;-88
2022/03/01 00:19:44;;;;;;;;;;;6.80;96.50;220.40;238766.00;;;;349868;28;5035;-88
2022/03/01 00:19:56;;;;;;;;;;;6.80;96.60;220.40;238766.00;;;;351277;28;6013;-88
2022/03/01 00:20:08;;;;;;;;;;;6.70;96.60;220.40;238766.00;;;;349769;28;5050;-88
2022/03/01 00:20:20;;;;;;;;;;;6.80;96.70;220.40;238766.00;;;;352740;28;4051;-88
2022/03/01 00:20:32;;;;;;;;;;;6.80;96.70;220.40;238766.00;;;;351102;28;5040;-87
2022/03/01 00:20:44;;;;;;;;;;;6.80;96.60;220.40;238766.00;;;;351141;28;4221;-88
2022/03/01 00:20:55;;;;;;;;;;;6.70;96.60;220.40;238766.00;;;;351269;28;5269;-88
2022/03/01 00:21:07;;;;;;;;;;;6.80;96.60;220.40;238766.00;;;;352776;28;4536;-88
2022/03/01 00:21:19;;;;;;;;;;;6.70;96.70;220.40;238766.00;;;;351224;28;7354;-88
2022/03/01 00:21:31;;;;;;;;;;;6.70;96.80;220.40;238766.00;;;;351163;28;3991;-88
2022/03/01 00:21:43;;;;;;;;;;;6.70;96.80;220.40;238766.00;;;;351337;28;5072;-88
2022/03/01 00:21:56;;;;;;;;;;;6.70;96.80;220.40;238766.00;;;;349914;28;6408;-88
2022/03/01 00:22:07;;;;;;;;;;;6.70;96.90;220.40;238766.00;;;;352949;27;5037;-88
2022/03/01 00:22:19;;;;;;;;;;;6.70;96.80;220.40;238766.00;;;;355109;27;6084;-88
2022/03/01 00:22:31;;;;;;;;;;;6.70;96.70;220.40;238766.00;;;;352458;28;5053;-88
2022/03/01 00:22:43;;;;;;;;;;;6.70;96.70;220.40;238766.00;;;;354263;27;4030;-88
2022/03/01 00:22:54;;;;;;;;;;;6.70;96.80;220.40;238766.00;;;;353920;27;7241;-88
2022/03/01 00:23:06;;;;;;;;;;;6.70;96.80;220.40;238766.00;;;;352543;28;6135;-88
2022/03/01 00:23:18;;;;;;;;;;;6.70;96.80;220.40;238766.00;;;;351326;28;5406;-88
2022/03/01 00:23:30;;;;;;;;;;;6.70;96.80;220.40;238766.00;;;;354075;27;4485;-88
2022/03/01 00:23:41;;;;;;;;;;;6.70;96.70;220.40;238766.00;;;;352693;28;5241;-88
2022/03/01 00:23:53;;;;;;;;;;;6.70;96.70;220.40;238766.00;;;;352409;28;3978;-87
2022/03/01 00:24:05;;;;;;;;;;;6.70;96.70;220.40;238766.00;;;;351199;28;5022;-88
2022/03/01 00:24:18;;;;;;;;;;;6.70;96.60;220.40;238766.00;;;;352580;28;4192;-88
2022/03/01 00:24:30;;;;;;;;;;;6.70;96.50;220.40;238766.00;;;;351119;28;5247;-88
2022/03/01 00:24:42;;;;;;;;;;;6.70;96.50;220.40;238766.00;;;;352669;28;4051;-88
2022/03/01 00:24:53;;;;;;;;;;;6.70;96.60;220.40;238766.00;;;;353999;27;5357;-88
2022/03/01 00:25:06;;;;;;;;;;;6.70;96.70;220.40;238766.00;;;;352056;28;5893;-88
2022/03/01 00:25:18;;;;;;;;;;;6.70;96.70;220.40;238766.00;;;;351214;28;5398;-88
2022/03/01 00:25:30;;;;;;;;;;;6.70;96.70;220.40;238766.00;;;;350988;28;6391;-88
2022/03/01 00:25:42;;;;;;;;;;;6.70;96.60;220.40;238766.00;;;;352605;28;5042;-88
2022/03/01 00:25:54;;;;;;;;;;;6.70;96.60;220.40;238766.00;;;;351203;28;3982;-88
2022/03/01 00:26:05;;;;;;;;;;;6.70;96.60;220.40;238766.00;;;;351098;28;5279;-88
2022/03/01 00:26:19;;;;;;;;;;;6.70;96.50;220.40;238766.00;;;;351401;28;4666;-88
2022/03/01 00:26:30;;;;;;;;;;;6.70;96.50;220.40;238766.00;;;;351249;28;5034;-88
2022/03/01 00:26:42;;;;;;;;;;;6.70;96.50;220.40;238766.00;;;;352757;28;4524;-88
2022/03/01 00:26:54;;;;;;;;;;;6.80;96.50;220.40;238766.00;;;;349917;28;5063;-88
2022/03/01 00:27:05;;;;;;;;;;;6.80;96.40;220.40;238766.00;;;;352679;28;4008;-88
2022/03/01 00:27:19;;;;;;;;;;;6.70;96.30;220.40;238766.00;;;;352789;28;5253;-88
2022/03/01 00:27:31;;;;;;;;;;;6.80;96.30;220.40;238766.00;;;;351354;28;4206;-88
2022/03/01 00:27:42;;;;;;;;;;;6.80;96.30;220.40;238766.00;;;;351524;28;5515;-88
2022/03/01 00:27:54;;;;;;;;;;;6.80;96.30;220.40;238766.00;;;;352794;28;4002;-88
2022/03/01 00:28:06;;;;;;;;;;;6.80;96.30;220.40;238766.00;;;;352415;28;5027;-87
2022/03/01 00:28:19;;;;;;;;;;;6.80;96.30;220.40;238766.00;;;;352823;28;4007;-88
2022/03/01 00:28:31;;;;;;;;;;;6.70;96.30;220.40;238766.00;;;;349934;28;5440;-88
2022/03/01 00:28:43;;;;;;;;;;;6.80;96.40;220.40;238766.00;;;;350187;28;4190;-88
2022/03/01 00:28:55;;;;;;;;;;;6.80;96.40;220.40;238766.00;;;;350023;28;7144;-88
2022/03/01 00:29:07;;;;;;;;;;;6.80;96.30;220.40;238766.00;;;;351398;28;4175;-88
2022/03/01 00:29:20;;;;;;;;;;;6.80;96.30;220.40;238766.00;;;;351495;28;5543;-88
2022/03/01 00:29:32;;;;;;;;;;;6.80;96.30;220.40;238766.00;;;;351463;28;4097;-88
2022/03/01 00:29:43;;;;;;;;;;;6.80;96.30;220.40;238766.00;;;;352976;28;5032;-88
2022/03/01 00:29:55;;;;;;;;;;;6.80;96.30;220.40;238766.00;;;;354369;27;4182;-88
2022/03/01 00:30:07;;;;;;;;;;;6.80;96.40;220.40;238766.00;;;;352709;27;7327;-88
2022/03/01 00:30:20;;;;;;;;;;;6.80;96.60;220.40;238766.00;;;;350187;28;4093;-88
2022/03/01 00:30:32;;;;;;;;;;;6.80;96.50;220.40;238766.00;;;;348702;28;7003;-88
2022/03/01 00:30:44;;;;;;;;;;;6.70;96.40;220.40;238766.00;;;;352906;27;5999;-88
2022/03/01 00:30:56;;;;;;;;;;;6.80;96.30;220.40;238766.00;;;;351327;28;7148;-88
2022/03/01 00:31:08;;;;;;;;;;;6.80;96.40;220.40;238766.00;;;;352141;28;4196;-88
2022/03/01 00:31:21;;;;;;;;;;;6.80;96.30;220.40;238766.00;;;;350129;28;5028;-88
2022/03/01 00:31:33;;;;;;;;;;;6.80;96.40;220.40;238766.00;;;;353259;27;4010;-87
2022/03/01 00:31:45;;;;;;;;;;;6.80;96.40;220.40;238766.00;;;;349962;28;5324;-88
2022/03/01 00:31:57;;;;;;;;;;;6.70;96.30;220.40;238766.00;;;;350173;28;4076;-88
2022/03/01 00:32:10;;;;;;;;;;;6.70;96.30;220.40;238766.00;;;;354156;27;7120;-88
2022/03/01 00:32:22;;;;;;;;;;;6.80;96.30;220.40;238766.00;;;;352895;28;3986;-88
2022/03/01 00:32:33;;;;;;;;;;;6.80;96.40;220.40;238766.00;;;;354131;27;7185;-88
2022/03/01 00:32:45;;;;;;;;;;;6.80;96.40;220.40;238766.00;;;;351434;28;6070;-88
2022/03/01 00:32:57;;;;;;;;;;;6.80;96.40;220.40;238766.00;;;;351413;28;5282;-88
2022/03/01 00:33:09;;;;;;;;;;;6.80;96.40;220.40;238766.00;;;;351474;28;4064;-88
2022/03/01 00:33:21;;;;;;;;;;;6.80;96.50;220.40;238766.00;;;;352798;28;5245;-88
2022/03/01 00:33:33;;;;;;;;;;;6.80;96.50;220.40;238766.00;;;;352876;28;4259;-88
2022/03/01 00:33:44;;;;;;;;;;;6.80;96.40;220.40;238766.00;;;;352866;28;6997;-88
2022/03/01 00:33:56;;;;;;;;;;;6.70;96.50;220.40;238766.00;;;;352600;28;5883;-88
2022/03/01 00:34:08;;;;;;;;;;;6.70;96.40;220.40;238766.00;;;;348684;28;5167;-88
2022/03/01 00:34:22;;;;;;;;;;;6.70;96.40;220.40;238766.00;;;;351499;28;4283;-88
2022/03/01 00:34:33;;;;;;;;;;;6.70;96.40;220.40;238766.00;;;;353029;27;5548;-88
2022/03/01 00:34:45;;;;;;;;;;;6.80;96.50;220.40;238766.00;;;;351938;28;4021;-88
2022/03/01 00:34:57;;;;;;;;;;;6.80;96.50;220.40;238766.00;;;;351533;28;5489;-88
2022/03/01 00:35:09;;;;;;;;;;;6.70;96.50;220.40;238766.00;;;;350070;28;5894;-88
2022/03/01 00:35:22;;;;;;;;;;;6.70;96.50;220.40;238766.00;;;;352876;28;5191;-88
2022/03/01 00:35:34;;;;;;;;;;;6.70;96.50;220.40;238766.00;;;;353305;27;4224;-88
2022/03/01 00:35:45;;;;;;;;;;;6.80;96.50;220.40;238766.00;;;;351427;28;5225;-88
2022/03/01 00:35:57;;;;;;;;;;;6.80;96.40;220.40;238766.00;;;;350801;28;4591;-88
2022/03/01 00:36:10;;;;;;;;;;;6.70;96.40;220.40;238766.00;;;;351391;28;5037;-87
2022/03/01 00:36:22;;;;;;;;;;;6.80;96.50;220.40;238766.00;;;;350050;28;4000;-88
2022/03/01 00:36:36;;;;;;;;;;;6.70;96.40;220.40;238766.00;;;;349946;28;7000;-88
2022/03/01 00:36:48;;;;;;;;;;;6.70;96.30;220.40;238766.00;;;;351492;28;4022;-88
2022/03/01 00:37:00;;;;;;;;;;;6.80;96.30;220.40;238766.00;;;;350877;28;5137;-88
2022/03/01 00:37:12;;;;;;;;;;;6.70;96.30;220.40;238766.00;;;;351447;28;4211;-88
2022/03/01 00:37:23;;;;;;;;;;;6.80;96.30;220.40;238766.00;;;;351392;28;5258;-87
2022/03/01 00:37:35;;;;;;;;;;;6.80;96.40;220.40;238766.00;;;;351248;28;4211;-88
2022/03/01 00:37:47;;;;;;;;;;;6.70;96.50;220.40;238766.00;;;;352870;28;5379;-88
2022/03/01 00:37:59;;;;;;;;;;;6.70;96.60;220.40;238766.00;;;;353026;28;4005;-88
2022/03/01 00:38:11;;;;;;;;;;;6.80;96.70;220.40;238766.00;;;;351418;28;5015;-88
2022/03/01 00:38:23;;;;;;;;;;;6.80;96.70;220.40;238766.00;;;;352996;28;4906;-88
2022/03/01 00:38:35;;;;;;;;;;;6.80;96.80;220.40;238766.00;;;;351404;28;5241;-88
2022/03/01 00:38:46;;;;;;;;;;;6.80;96.70;220.40;238766.00;;;;354338;27;4216;-88
2022/03/01 00:38:58;;;;;;;;;;;6.80;96.60;220.40;238766.00;;;;352853;27;7188;-88
2022/03/01 00:39:10;;;;;;;;;;;6.80;96.70;220.40;238766.00;;;;351624;28;4008;-88
2022/03/01 00:39:23;;;;;;;;;;;6.80;96.70;220.40;238766.00;;;;352954;28;6771;-88
2022/03/01 00:39:35;;;;;;;;;;;6.70;96.60;220.40;238766.00;;;;352909;28;4192;-88
2022/03/01 00:39:47;;;;;;;;;;;6.70;96.60;220.40;238766.00;;;;352545;28;5253;-88
2022/03/01 00:39:59;;;;;;;;;;;6.70;96.70;220.40;238766.00;;;;351118;28;5896;-88
2022/03/01 00:40:11;;;;;;;;;;;6.70;96.70;220.40;238766.00;;;;352216;28;5035;-88
2022/03/01 00:40:24;;;;;;;;;;;6.70;96.70;220.40;238766.00;;;;352710;28;3991;-88
2022/03/01 00:40:35;;;;;;;;;;;6.70;96.80;220.40;238766.00;;;;351326;28;5062;-88
2022/03/01 00:40:47;;;;;;;;;;;6.70;96.80;220.40;238766.00;;;;354266;27;3990;-88
2022/03/01 00:40:59;;;;;;;;;;;6.70;96.70;220.40;238766.00;;;;352911;27;5340;-88
2022/03/01 00:41:11;;;;;;;;;;;6.70;96.70;220.40;238766.00;;;;354415;27;4016;-88
2022/03/01 00:41:24;;;;;;;;;;;6.70;96.70;220.40;238766.00;;;;350032;28;5017;-88
2022/03/01 00:41:36;;;;;;;;;;;6.70;96.60;220.40;238766.00;;;;351582;28;4174;-87
2022/03/01 00:41:47;;;;;;;;;;;6.70;96.50;220.40;238766.00;;;;352810;28;5053;-88
2022/03/01 00:41:59;;;;;;;;;;;6.70;96.50;220.40;238766.00;;;;351611;28;3997;-88
2022/03/01 00:42:11;;;;;;;;;;;6.70;96.40;220.40;238766.00;;;;349939;28;5024;-88
2022/03/01 00:42:24;;;;;;;;;;;6.70;96.50;220.40;238766.00;;;;352916;28;4046;-88
2022/03/01 00:42:36;;;;;;;;;;;6.70;96.50;220.40;238766.00;;;;349806;28;5051;-88
2022/03/01 00:42:48;;;;;;;;;;;6.70;96.60;220.40;238766.00;;;;351446;28;4462;-88
2022/03/01 00:42:59;;;;;;;;;;;6.70;96.60;220.40;238766.00;;;;350374;28;5569;-88
2022/03/01 00:43:11;;;;;;;;;;;6.70;96.50;220.40;238766.00;;;;352624;27;3997;-88
2022/03/01 00:43:25;;;;;;;;;;;6.70;96.50;220.40;238766.00;;;;351500;28;5516;-88
2022/03/01 00:43:37;;;;;;;;;;;6.70;96.50;220.40;238766.00;;;;351437;28;4456;-88
2022/03/01 00:43:48;;;;;;;;;;;6.70;96.50;220.40;238766.00;;;;352770;28;5021;-88
2022/03/01 00:44:00;;;;;;;;;;;6.70;96.50;220.40;238766.00;;;;352539;28;3989;-88
2022/03/01 00:44:12;;;;;;;;;;;6.70;96.50;220.40;238766.00;;;;351476;28;5027;-88
2022/03/01 00:44:27;;;;;;;;;;;6.70;96.50;220.40;238766.00;;;;354306;27;5858;-88
2022/03/01 00:44:39;;;;;;;;;;;6.70;96.50;220.40;238766.00;;;;354286;27;5032;-88
2022/03/01 00:44:51;;;;;;;;;;;6.80;96.50;220.40;238766.00;;;;351375;28;3996;-88
2022/03/01 00:45:03;;;;;;;;;;;6.70;96.40;220.40;238766.00;;;;351466;28;7144;-88
2022/03/01 00:45:15;;;;;;;;;;;6.70;96.30;220.40;238766.00;;;;352880;28;4198;-88
2022/03/01 00:45:27;;;;;;;;;;;6.70;96.30;220.40;238766.00;;;;352814;28;5351;-88
2022/03/01 00:45:39;;;;;;;;;;;6.80;96.30;220.40;238766.00;;;;354230;27;3975;-88
2022/03/01 00:45:51;;;;;;;;;;;6.80;96.30;220.40;238766.00;;;;351430;28;5014;-88
2022/03/01 00:46:04;;;;;;;;;;;6.80;96.30;220.40;238766.00;;;;350997;28;4319;-88
2022/03/01 00:46:17;;;;;;;;;;;6.70;96.30;220.40;238766.00;;;;352387;27;5258;-88
2022/03/01 00:46:29;;;;;;;;;;;6.80;96.40;220.40;238766.00;;;;351740;28;4202;-88
2022/03/01 00:46:41;;;;;;;;;;;6.70;96.30;220.40;238766.00;;;;351426;28;7249;-88
2022/03/01 00:46:53;;;;;;;;;;;6.80;96.30;220.40;238766.00;;;;351391;28;4466;-88
2022/03/01 00:47:04;;;;;;;;;;;6.80;96.30;220.40;238766.00;;;;351428;28;7078;-87
2022/03/01 00:47:16;;;;;;;;;;;6.80;96.40;220.40;238766.00;;;;350086;28;3987;-88
2022/03/01 00:47:28;;;;;;;;;;;6.80;96.40;220.40;238766.00;;;;349966;28;5289;-88
2022/03/01 00:47:40;;;;;;;;;;;6.80;96.40;220.40;238766.00;;;;351497;28;6130;-88
2022/03/01 00:47:52;;;;;;;;;;;6.80;96.30;220.40;238766.00;;;;350077;28;5585;-88
2022/03/01 00:48:03;;;;;;;;;;;6.80;96.60;220.40;238766.00;;;;351530;28;4015;-88
2022/03/01 00:48:15;;;;;;;;;;;6.80;96.20;220.40;238766.00;;;;352854;28;7136;-88
2022/03/01 00:48:27;;;;;;;;;;;6.80;96.20;220.40;238766.00;;;;351431;28;4192;-88
2022/03/01 00:48:39;;;;;;;;;;;6.80;96.20;220.40;238766.00;;;;349985;28;7135;-88
2022/03/01 00:48:51;;;;;;;;;;;6.80;96.20;220.40;238766.00;;;;351367;28;6020;-88
2022/03/01 00:49:03;;;;;;;;;;;6.80;96.20;220.40;238766.00;;;;350894;28;5756;-88
2022/03/01 00:49:14;;;;;;;;;;;6.80;96.20;220.40;238766.00;;;;351148;28;3987;-88
2022/03/01 00:49:26;;;;;;;;;;;6.80;96.20;220.40;238766.00;;;;352831;28;5144;-88
2022/03/01 00:49:38;;;;;;;;;;;6.80;96.20;220.40;238766.00;;;;352861;28;4180;-88
2022/03/01 00:49:50;;;;;;;;;;;6.80;96.30;220.40;238766.00;;;;352849;28;5019;-88
2022/03/01 00:50:02;;;;;;;;;;;6.80;96.30;220.40;238766.00;;;;352819;28;4198;-88
2022/03/01 00:50:14;;;;;;;;;;;6.80;96.30;220.40;238766.00;;;;349954;28;5048;-88
2022/03/01 00:50:26;;;;;;;;;;;6.80;96.30;220.40;238766.00;;;;351457;28;3998;-88
2022/03/01 00:50:37;;;;;;;;;;;6.80;96.30;220.40;238766.00;;;;352808;28;5265;-87
2022/03/01 00:50:49;;;;;;;;;;;6.80;96.30;220.40;238766.00;;;;352798;28;6209;-88
2022/03/01 00:51:01;;;;;;;;;;;6.80;96.30;220.40;238766.00;;;;351435;28;5050;-88
2022/03/01 00:51:13;;;;;;;;;;;6.80;96.30;220.40;238766.00;;;;355737;27;4188;-88
2022/03/01 00:51:25;;;;;;;;;;;6.80;96.20;220.40;238766.00;;;;354216;27;5253;-88
2022/03/01 00:51:37;;;;;;;;;;;6.80;96.20;220.40;238766.00;;;;349997;28;6009;-88
2022/03/01 00:51:49;;;;;;;;;;;6.80;96.10;220.40;238766.00;;;;350022;28;5157;-88
2022/03/01 00:52:01;;;;;;;;;;;6.80;96.00;220.40;238766.00;;;;353458;27;4554;-88
2022/03/01 00:52:12;;;;;;;;;;;6.80;96.00;220.40;238766.00;;;;355970;27;5644;-87
2022/03/01 00:52:24;;;;;;;;;;;6.80;96.00;220.40;238766.00;;;;351378;28;4512;-88
2022/03/01 00:52:36;;;;;;;;;;;6.80;96.10;220.40;238766.00;;;;352741;28;5021;-88
2022/03/01 00:52:50;;;;;;;;;;;6.80;96.10;220.40;238766.00;;;;354295;27;4267;-88
2022/03/01 00:53:01;;;;;;;;;;;6.80;96.10;220.40;238766.00;;;;351296;28;5015;-88
2022/03/01 00:53:13;;;;;;;;;;;6.80;96.10;220.40;238766.00;;;;351463;28;3994;-88
2022/03/01 00:53:25;;;;;;;;;;;6.80;96.10;220.40;238766.00;;;;351350;28;5268;-88
2022/03/01 00:53:37;;;;;;;;;;;6.70;96.10;220.40;238766.00;;;;351413;28;4003;-88
2022/03/01 00:53:49;;;;;;;;;;;6.80;96.10;220.40;238766.00;;;;351414;28;7182;-88
2022/03/01 00:54:01;;;;;;;;;;;6.80;96.20;220.40;238766.00;;;;352907;28;4228;-88
2022/03/01 00:54:13;;;;;;;;;;;6.70;96.10;220.40;238766.00;;;;352718;27;5024;-88
2022/03/01 00:54:25;;;;;;;;;;;6.80;96.10;220.40;238766.00;;;;352928;28;3983;-88
2022/03/01 00:54:37;;;;;;;;;;;6.80;96.10;220.40;238766.00;;;;351464;28;5270;-88
2022/03/01 00:54:49;;;;;;;;;;;6.80;96.20;220.40;238766.00;;;;352759;27;4609;-88
2022/03/01 00:55:01;;;;;;;;;;;6.80;96.20;220.40;238766.00;;;;349944;28;5268;-88
2022/03/01 00:55:13;;;;;;;;;;;6.80;96.10;220.40;238766.00;;;;352908;28;4058;-88
2022/03/01 00:55:25;;;;;;;;;;;6.80;96.00;220.40;238766.00;;;;352770;28;7670;-88
2022/03/01 00:55:36;;;;;;;;;;;6.80;96.00;220.40;238766.00;;;;351512;28;4532;-88
2022/03/01 00:55:50;;;;;;;;;;;6.80;96.00;220.40;238766.00;;;;352790;28;7493;-88
2022/03/01 00:56:04;;;;;;;;;;;6.80;96.00;220.40;238766.00;;;;351380;28;6003;-88
2022/03/01 00:56:16;;;;;;;;;;;6.80;96.10;220.40;238766.00;;;;352782;28;8089;-88
2022/03/01 00:56:27;;;;;;;;;;;6.80;96.10;220.40;238766.00;;;;351358;28;3986;-88
2022/03/01 00:56:39;;;;;;;;;;;6.80;96.10;220.40;238766.00;;;;352787;28;5663;-88
2022/03/01 00:56:51;;;;;;;;;;;6.80;96.20;220.40;238766.00;;;;351169;28;4055;-88
2022/03/01 00:57:03;;;;;;;;;;;6.70;96.10;220.40;238766.00;;;;352768;28;7306;-88
2022/03/01 00:57:15;;;;;;;;;;;6.70;96.20;220.40;238766.00;;;;350040;28;4001;-88
2022/03/01 00:57:27;;;;;;;;;;;6.70;96.20;220.40;238766.00;;;;352789;27;5147;-88
2022/03/01 00:57:38;;;;;;;;;;;6.70;96.20;220.40;238766.00;;;;354394;27;3988;-87
2022/03/01 00:57:51;;;;;;;;;;;6.70;96.10;220.40;238766.00;;;;351463;28;7039;-88
2022/03/01 00:58:03;;;;;;;;;;;6.70;96.10;220.40;238766.00;;;;353543;27;4474;-88
2022/03/01 00:58:15;;;;;;;;;;;6.70;96.10;220.40;238766.00;;;;354917;27;7424;-88
2022/03/01 00:58:26;;;;;;;;;;;6.70;96.10;220.40;238766.00;;;;353710;27;6037;-88
2022/03/01 00:58:38;;;;;;;;;;;6.70;96.10;220.40;238766.00;;;;352840;28;5254;-88
2022/03/01 00:58:50;;;;;;;;;;;6.70;96.10;220.40;238766.00;;;;352490;28;4032;-88
2022/03/01 00:59:02;;;;;;;;;;;6.70;96.20;220.40;238766.00;;;;351458;28;7165;-88
2022/03/01 00:59:14;;;;;;;;;;;6.70;96.20;220.40;238766.00;;;;348753;28;4230;-88
2022/03/01 00:59:26;;;;;;;;;;;6.70;96.10;220.40;238766.00;;;;352839;28;5118;-88
2022/03/01 00:59:38;;;;;;;;;;;6.70;96.10;220.40;238766.00;;;;352838;28;5988;-88